Airfield :
LOGIN :

Register | Disclaimer

   EN    FR    IT 

 










Legend :    VFR   Marginal VFR   IFR   Intensive IFR   Very Intensive IFR
Visi :
Ceiling :
>= 8 km
>= 3000ft
5 to 8 km
1000 to 3000 ft
1500m to 5 km
500 to 1000 ft
800 to 1500m
200 to 500 ft
< 800m
< 200 ft
Symbols :   Thunderstorms  Fog  Heavy snow  Heavy precipitations  Wind > 20 kt
SIGMETs :     Misc.  Thunderstorms  Icing  Turbulence  Mountain Waves  Volcanic Ashes







- Airport Elevation : 75 ft
- IATA code : YEO


EGDY - RNAS Yeovilton

CURRENT METAR :
  • 142150Z AUTO 29014KT 9999 BKN036/// 06/04 Q0991 RERA

EXPIRED METARs :
  • 142050Z AUTO 27008KT 9999 -RA SCT033/// BKN050/// 04/04 Q0990
  • 141950Z 26008KT 9999 -SHRA FEW012 FEW016CB BKN018 BKN030 05/04 Q0989 WHT BECMG SCT030 BLU

TAF TAF EGDY
Valid from the 14 at 15:00 until the 15 at 00:00 UTC


141348Z 1415/1424 26012G22KT 9999 SCT030
TEMPO 1415/1424 28015G25KT 8000 SHRA SCT020
PROB30
TEMPO 1415/1424 30025G35KT 4000 +SHRA SCT010
No reported NOTAMs for that airfield.
1 SIGMET reported for the London FIR (EGTT) :
 
Severe turbulence
EGTT SIGMET 05 VALID 141900/142300 EGRR
EGTT LONDON FIR SEV TURB FCST SW OF LINE N5000 W00149 - N5152 W00623 SFC/FL060 STNR WKN=



MET'MAP, your aeronautical weather chart ! - Copyright ORBIFLY December 2007 - Disclaimer

ORBIFLY MET'MAP TEAM :

Programming & Development : Alexandra Zaïnal
Concept & Development : Baudouin d'Aumeries
Co-Development & Prog : Marc-Olivier Méhu
Technical & hardware support : Manuel Goepfert

Contact : metmap@orbifly.com




SOURCES & CREDITS :

   NOAA